createdAt,value
2022-08-09T00:00:20.464Z,6.18
2022-08-09T00:02:49.797Z,6.03
2022-08-09T00:06:17.601Z,7.95
2022-08-09T00:08:32.327Z,6.20
2022-08-09T00:11:06.030Z,4.90
2022-08-09T00:13:54.032Z,5.78
2022-08-09T00:16:26.197Z,5.00
2022-08-09T00:19:10.158Z,5.10
2022-08-09T00:21:38.859Z,5.73
2022-08-09T00:24:22.574Z,5.10
2022-08-09T00:26:51.495Z,12.80
2022-08-09T00:29:39.117Z,5.85
2022-08-09T00:32:06.455Z,5.82
2022-08-09T00:34:33.659Z,5.65
2022-08-09T00:37:00.905Z,5.05
2022-08-09T00:40:09.302Z,5.03
2022-08-09T00:44:11.080Z,6.75
2022-08-09T00:45:03.744Z,5.85
2022-08-09T00:47:43.107Z,8.73
2022-08-09T00:50:14.258Z,8.85
2022-08-09T00:52:42.329Z,6.35
2022-08-09T00:55:16.703Z,8.18
2022-08-09T00:57:59.275Z,8.38
2022-08-09T01:00:27.477Z,8.40
2022-08-09T01:03:15.158Z,6.75
2022-08-09T01:05:54.314Z,8.25
2022-08-09T01:08:49.478Z,5.38
2022-08-09T01:11:26.858Z,7.35
2022-08-09T01:14:16.967Z,5.53
2022-08-09T01:16:49.228Z,6.50
2022-08-09T01:19:51.778Z,5.97
2022-08-09T01:22:54.914Z,6.82
2022-08-09T01:25:33.449Z,6.35
2022-08-09T01:28:11.319Z,6.57
2022-08-09T01:30:51.952Z,5.93
2022-08-09T01:33:23.939Z,6.50
2022-08-09T01:35:59.885Z,9.20
2022-08-09T01:38:30.141Z,6.30
2022-08-09T01:41:27.361Z,6.40
2022-08-09T01:43:57.989Z,6.07
2022-08-09T01:46:38.714Z,5.70
2022-08-09T01:49:12.574Z,6.55
2022-08-09T01:51:53.392Z,6.13
2022-08-09T01:54:24.125Z,8.18
2022-08-09T01:56:52.305Z,7.10
2022-08-09T01:59:21.343Z,7.22
2022-08-09T02:01:59.169Z,6.55
2022-08-09T02:04:28.446Z,6.13
2022-08-09T02:08:35.140Z,5.82
2022-08-09T02:10:29.914Z,6.80
2022-08-09T02:13:01.179Z,8.15
2022-08-09T02:15:36.212Z,8.63
2022-08-09T02:18:23.602Z,7.80
2022-08-09T02:20:56.028Z,8.70
2022-08-09T02:23:43.826Z,6.95
2022-08-09T02:26:25.323Z,9.55
2022-08-09T02:29:21.848Z,7.95
2022-08-09T02:31:51.207Z,7.13
2022-08-09T02:34:40.140Z,7.88
2022-08-09T02:37:14.256Z,6.88
2022-08-09T02:39:55.225Z,7.43
2022-08-09T02:42:33.846Z,7.00
2022-08-09T02:45:08.479Z,7.07
2022-08-09T02:47:57.963Z,6.97
2022-08-09T02:50:28.840Z,7.00
2022-08-09T02:53:01.345Z,9.10
2022-08-09T02:55:46.441Z,9.15
2022-08-09T02:58:32.780Z,11.88
2022-08-09T03:01:08.207Z,7.32
2022-08-09T03:04:17.231Z,6.95
2022-08-09T03:06:27.471Z,7.53
2022-08-09T03:08:55.858Z,6.78
2022-08-09T03:11:29.873Z,7.25
2022-08-09T03:14:13.525Z,7.97
2022-08-09T03:16:45.186Z,8.68
2022-08-09T03:19:57.618Z,7.93
2022-08-09T03:22:12.446Z,10.00
2022-08-09T03:25:05.785Z,8.25
2022-08-09T03:27:45.218Z,10.55
2022-08-09T03:30:14.343Z,8.40
2022-08-09T03:32:58.475Z,9.68
2022-08-09T03:35:44.494Z,7.75
2022-08-09T03:38:28.495Z,6.90
2022-08-09T03:40:58.075Z,9.80
2022-08-09T03:43:31.733Z,7.38
2022-08-09T03:46:04.727Z,8.68
2022-08-09T03:48:51.877Z,7.13
2022-08-09T03:51:56.366Z,6.90
2022-08-09T03:54:11.103Z,7.28
2022-08-09T03:56:41.296Z,9.65
2022-08-09T03:59:13.858Z,7.32
2022-08-09T04:01:49.967Z,7.43
2022-08-09T04:04:18.259Z,8.30
2022-08-09T04:06:49.172Z,8.32
2022-08-09T04:09:41.637Z,7.82
2022-08-09T04:12:11.959Z,8.27
2022-08-09T04:15:02.086Z,7.35
2022-08-09T04:17:39.410Z,7.10
2022-08-09T04:20:12.095Z,7.07
2022-08-09T04:22:41.309Z,8.27
2022-08-09T04:25:12.223Z,7.38
2022-08-09T04:27:46.640Z,8.40
2022-08-09T04:30:26.024Z,8.23
2022-08-09T04:32:54.173Z,9.25
2022-08-09T04:35:21.719Z,8.45
2022-08-09T04:37:49.754Z,7.07
2022-08-09T04:40:19.128Z,8.07
2022-08-09T04:42:55.843Z,6.75
2022-08-09T04:45:23.925Z,7.18
2022-08-09T04:47:58.857Z,7.60
2022-08-09T04:50:31.721Z,6.57
2022-08-09T04:53:02.343Z,7.95
2022-08-09T04:55:39.324Z,7.05
2022-08-09T04:58:09.444Z,8.00
2022-08-09T05:00:36.821Z,6.97
2022-08-09T05:03:30.611Z,8.07
2022-08-09T05:06:07.016Z,7.10
2022-08-09T05:08:35.568Z,6.80
2022-08-09T05:11:03.872Z,6.43
2022-08-09T05:13:34.045Z,7.20
2022-08-09T05:16:07.234Z,8.63
2022-08-09T05:18:37.737Z,7.10
2022-08-09T05:21:24.171Z,8.75
2022-08-09T05:23:57.900Z,10.38
2022-08-09T05:26:45.427Z,6.03
2022-08-09T05:29:21.863Z,6.85
2022-08-09T05:31:56.788Z,10.10
2022-08-09T05:34:30.901Z,9.80
2022-08-09T05:37:06.575Z,6.72
2022-08-09T05:39:43.460Z,7.03
2022-08-09T05:42:17.707Z,7.30
2022-08-09T05:44:56.133Z,6.90
2022-08-09T05:47:24.466Z,8.68
2022-08-09T05:50:24.511Z,7.00
2022-08-09T05:52:41.937Z,7.65
2022-08-09T05:55:20.777Z,6.85
2022-08-09T05:57:50.654Z,9.10
2022-08-09T06:02:54.136Z,8.98
2022-08-09T06:05:30.889Z,7.38
2022-08-09T06:08:09.263Z,7.10
2022-08-09T06:10:38.517Z,6.57
2022-08-09T06:13:12.366Z,7.53
2022-08-09T06:15:46.793Z,9.15
2022-08-09T06:18:15.752Z,7.35
2022-08-09T06:20:54.928Z,6.68
2022-08-09T06:23:58.514Z,7.28
2022-08-09T06:26:20.786Z,7.43
2022-08-09T06:29:00.132Z,8.80
2022-08-09T06:31:31.227Z,7.15
2022-08-09T06:34:07.313Z,9.98
2022-08-09T06:36:34.439Z,9.15
2022-08-09T06:39:02.386Z,6.93
2022-08-09T06:42:07.503Z,6.80
2022-08-09T06:44:22.721Z,6.68
2022-08-09T06:46:55.295Z,9.18
2022-08-09T06:49:44.585Z,7.93
2022-08-09T06:52:10.699Z,6.80
2022-08-09T06:54:39.038Z,5.82
2022-08-09T06:57:08.534Z,7.18
2022-08-09T07:00:50.663Z,6.63
2022-08-09T07:02:22.528Z,8.20
2022-08-09T07:04:57.809Z,6.30
2022-08-09T07:08:00.807Z,6.25
2022-08-09T07:10:22.430Z,6.63
2022-08-09T07:12:57.638Z,7.40
2022-08-09T07:16:39.460Z,6.85
2022-08-09T07:18:14.252Z,5.40
2022-08-09T07:20:43.351Z,7.53
2022-08-09T07:23:19.082Z,5.00
2022-08-09T07:25:47.965Z,8.77
2022-08-09T07:28:26.187Z,5.47
2022-08-09T07:30:55.458Z,5.47
2022-08-09T07:33:22.226Z,7.38
2022-08-09T07:35:54.138Z,6.35
2022-08-09T07:38:23.507Z,7.28
2022-08-09T07:41:10.066Z,7.30
2022-08-09T07:43:41.294Z,7.07
2022-08-09T07:48:59.459Z,11.98
2022-08-09T07:52:06.332Z,6.50
2022-08-09T07:54:19.237Z,3.88
2022-08-09T07:56:56.944Z,3.80
2022-08-09T07:59:34.399Z,6.07
2022-08-09T08:02:19.510Z,7.25
2022-08-09T08:08:43.294Z,4.18
2022-08-09T08:10:08.855Z,4.05
2022-08-09T08:12:42.873Z,4.72
2022-08-09T08:15:13.922Z,3.42
2022-08-09T08:17:53.032Z,3.95
2022-08-09T08:20:29.536Z,4.00
2022-08-09T08:23:16.028Z,4.40
2022-08-09T08:28:34.958Z,6.70
2022-08-09T08:31:14.452Z,3.33
2022-08-09T08:33:52.739Z,3.05
2022-08-09T08:36:22.475Z,2.97
2022-08-09T08:38:56.386Z,2.88
2022-08-09T08:41:24.981Z,4.43
2022-08-09T08:44:09.593Z,3.97
2022-08-09T08:46:59.689Z,3.88
2022-08-09T08:49:38.580Z,4.85
2022-08-09T08:55:06.307Z,4.00
2022-08-09T08:57:34.728Z,3.50
2022-08-09T09:00:12.857Z,2.78
2022-08-09T09:02:52.695Z,6.95
2022-08-09T09:05:33.359Z,3.53
2022-08-09T09:08:30.686Z,3.63
2022-08-09T09:11:03.418Z,3.83
2022-08-09T09:13:55.641Z,3.40
2022-08-09T09:16:35.065Z,6.00
2022-08-09T09:22:07.703Z,3.30
2022-08-09T09:26:00.531Z,2.85
2022-08-09T09:28:06.150Z,2.20
2022-08-09T09:30:47.356Z,3.15
2022-08-09T09:33:16.258Z,3.97
2022-08-09T09:36:04.024Z,8.52
2022-08-09T09:38:58.063Z,2.88
2022-08-09T09:41:32.527Z,2.42
2022-08-09T09:44:12.680Z,3.00
2022-08-09T09:46:50.872Z,1.95
2022-08-09T09:49:23.621Z,5.72
2022-08-09T09:52:35.730Z,2.05
2022-08-09T09:55:23.927Z,2.70
2022-08-09T09:58:02.195Z,2.17
2022-08-09T10:00:32.142Z,3.63
2022-08-09T10:03:00.749Z,2.58
2022-08-09T10:06:03.936Z,6.72
2022-08-09T10:08:32.063Z,3.33
2022-08-09T10:10:58.979Z,3.08
2022-08-09T10:13:45.099Z,2.65
2022-08-09T10:16:56.882Z,3.95
2022-08-09T10:19:06.144Z,2.90
2022-08-09T10:21:33.754Z,4.78
2022-08-09T10:24:04.512Z,4.32
2022-08-09T10:26:31.379Z,2.83
2022-08-09T10:29:23.296Z,3.67
2022-08-09T10:34:35.788Z,4.20
2022-08-09T10:37:03.138Z,4.68
2022-08-09T10:39:30.454Z,4.07
2022-08-09T10:42:08.330Z,3.30
2022-08-09T10:44:39.944Z,6.28
2022-08-09T10:48:29.346Z,2.90
2022-08-09T10:51:06.635Z,5.90
2022-08-09T10:54:12.517Z,1.90
2022-08-09T10:56:43.417Z,4.22
2022-08-09T10:59:23.427Z,2.03
2022-08-09T11:03:10.881Z,2.53
2022-08-09T11:05:24.542Z,2.63
2022-08-09T11:07:59.011Z,2.92
2022-08-09T11:10:47.279Z,2.78
2022-08-09T11:13:49.916Z,3.30
2022-08-09T11:16:33.640Z,2.65
2022-08-09T11:19:07.823Z,5.88
2022-08-09T11:22:10.827Z,2.10
2022-08-09T11:25:08.022Z,3.33
2022-08-09T11:28:05.017Z,3.83
2022-08-09T11:30:32.778Z,3.15
2022-08-09T11:33:19.596Z,2.53
2022-08-09T11:36:00.402Z,5.78
2022-08-09T11:38:34.186Z,3.38
2022-08-09T11:41:12.846Z,5.40
2022-08-09T11:43:48.801Z,2.10
2022-08-09T11:46:18.433Z,2.58
2022-08-09T11:48:57.770Z,3.10
2022-08-09T11:53:20.944Z,2.58
2022-08-09T11:54:28.202Z,2.88
2022-08-09T11:57:56.398Z,6.60
2022-08-09T12:00:29.920Z,5.05
2022-08-09T12:02:59.856Z,1.85
2022-08-09T12:05:42.361Z,3.90
2022-08-09T12:08:19.765Z,3.00
2022-08-09T12:10:53.661Z,4.15
2022-08-09T12:14:09.408Z,2.75
2022-08-09T12:16:38.425Z,2.90
2022-08-09T12:19:09.533Z,2.28
2022-08-09T12:21:48.639Z,2.55
2022-08-09T12:24:25.880Z,2.03
2022-08-09T12:29:13.079Z,3.72
2022-08-09T12:30:01.687Z,4.28
2022-08-09T12:32:44.271Z,4.85
2022-08-09T12:35:13.443Z,5.45
2022-08-09T12:37:51.769Z,4.57
2022-08-09T12:40:24.424Z,3.08
2022-08-09T12:42:52.101Z,3.80
2022-08-09T12:45:34.592Z,6.93
2022-08-09T12:48:19.944Z,4.10
2022-08-09T12:50:52.038Z,3.60
2022-08-09T12:53:44.645Z,5.72
2022-08-09T12:56:44.089Z,5.75
2022-08-09T12:59:10.219Z,3.47
2022-08-09T13:01:38.932Z,4.38
2022-08-09T13:04:36.279Z,2.40
2022-08-09T13:07:14.076Z,2.80
2022-08-09T13:09:52.714Z,2.83
2022-08-09T13:12:23.042Z,3.15
2022-08-09T13:14:54.172Z,3.13
2022-08-09T13:17:43.784Z,3.67
2022-08-09T13:20:20.215Z,3.00
2022-08-09T13:23:04.750Z,2.15
2022-08-09T13:25:52.693Z,3.15
2022-08-09T13:28:34.117Z,2.10
2022-08-09T13:32:18.120Z,1.58
2022-08-09T13:33:55.035Z,2.13
2022-08-09T13:36:38.220Z,3.85
2022-08-09T13:41:49.628Z,9.18
2022-08-09T13:42:01.512Z,2.45
2022-08-09T13:44:29.215Z,1.55
2022-08-09T13:47:19.381Z,2.63
2022-08-09T13:49:56.349Z,1.52
2022-08-09T13:52:24.564Z,3.38
2022-08-09T13:55:00.249Z,1.98
2022-08-09T13:57:37.518Z,4.20
2022-08-09T14:00:13.390Z,6.03
2022-08-09T14:03:03.155Z,3.03
2022-08-09T14:05:56.667Z,2.05
2022-08-09T14:08:17.663Z,1.40
2022-08-09T14:10:50.271Z,1.95
2022-08-09T14:14:15.896Z,2.47
2022-08-09T14:16:14.018Z,3.92
2022-08-09T14:18:45.481Z,3.80
2022-08-09T14:21:20.527Z,2.90
2022-08-09T14:23:53.806Z,1.52
2022-08-09T14:26:25.442Z,2.67
2022-08-09T14:28:58.886Z,1.67
2022-08-09T14:31:35.926Z,5.43
2022-08-09T14:34:13.349Z,4.45
2022-08-09T14:36:44.569Z,3.58
2022-08-09T14:39:11.816Z,1.20
2022-08-09T14:41:40.034Z,1.85
2022-08-09T14:44:11.275Z,2.80
2022-08-09T14:47:03.034Z,3.75
2022-08-09T14:49:26.292Z,5.80
2022-08-09T14:51:58.320Z,2.53
2022-08-09T14:54:27.716Z,3.00
2022-08-09T14:56:58.630Z,5.68
2022-08-09T14:59:28.474Z,3.25
2022-08-09T15:01:55.859Z,2.78
2022-08-09T15:04:23.417Z,2.08
2022-08-09T15:06:51.328Z,1.65
2022-08-09T15:09:52.003Z,1.83
2022-08-09T15:12:08.141Z,4.05
2022-08-09T15:14:38.293Z,2.00
2022-08-09T15:17:09.263Z,8.65
2022-08-09T15:19:37.129Z,3.72
2022-08-09T15:22:30.528Z,2.33
2022-08-09T15:25:00.055Z,1.50
2022-08-09T15:27:47.412Z,2.67
2022-08-09T15:30:57.718Z,3.28
2022-08-09T15:33:07.317Z,2.00
2022-08-09T15:35:44.235Z,2.15
2022-08-09T15:38:12.261Z,1.77
2022-08-09T15:40:43.430Z,3.47
2022-08-09T15:43:13.163Z,1.42
2022-08-09T15:45:51.965Z,6.55
2022-08-09T15:48:30.642Z,2.17
2022-08-09T15:51:00.557Z,2.88
2022-08-09T15:54:04.555Z,3.50
2022-08-09T15:56:29.491Z,3.30
2022-08-09T15:58:58.917Z,3.38
2022-08-09T16:01:26.060Z,1.88
2022-08-09T16:03:52.799Z,3.45
2022-08-09T16:06:35.045Z,1.70
2022-08-09T16:09:05.682Z,1.45
2022-08-09T16:11:33.569Z,5.13
2022-08-09T16:14:06.806Z,4.00
2022-08-09T16:16:37.315Z,4.10
2022-08-09T16:19:10.195Z,2.25
2022-08-09T16:21:41.430Z,2.58
2022-08-09T16:24:19.987Z,4.53
2022-08-09T16:26:57.145Z,1.30
2022-08-09T16:29:37.084Z,3.38
2022-08-09T16:32:33.411Z,3.83
2022-08-09T16:34:58.764Z,3.15
2022-08-09T16:37:55.019Z,4.95
2022-08-09T16:40:20.433Z,3.95
2022-08-09T16:42:56.783Z,2.20
2022-08-09T16:45:23.588Z,2.58
2022-08-09T16:48:50.550Z,6.50
2022-08-09T16:50:42.360Z,2.38
2022-08-09T16:56:06.042Z,3.53
2022-08-09T16:58:37.251Z,2.08
2022-08-09T17:01:07.574Z,2.03
2022-08-09T17:03:34.942Z,3.33
2022-08-09T17:06:06.558Z,3.97
2022-08-09T17:08:46.675Z,4.68
2022-08-09T17:11:24.519Z,3.67
2022-08-09T17:14:01.035Z,2.53
2022-08-09T17:16:28.875Z,3.13
2022-08-09T17:18:55.651Z,7.13
2022-08-09T17:21:25.156Z,4.07
2022-08-09T17:24:21.167Z,4.95
2022-08-09T17:26:42.635Z,3.78
2022-08-09T17:29:20.372Z,2.17
2022-08-09T17:31:49.182Z,3.20
2022-08-09T17:35:00.416Z,3.58
2022-08-09T17:37:04.037Z,2.08
2022-08-09T17:39:52.181Z,2.17
2022-08-09T17:42:40.828Z,2.92
2022-08-09T17:45:06.459Z,3.72
2022-08-09T17:47:49.942Z,3.78
2022-08-09T17:50:36.453Z,3.35
2022-08-09T17:53:19.301Z,1.52
2022-08-09T17:55:51.081Z,9.15
2022-08-09T17:58:22.212Z,3.67
2022-08-09T18:00:55.047Z,3.63
2022-08-09T18:03:24.627Z,4.03
2022-08-09T18:05:53.281Z,2.08
2022-08-09T18:08:22.280Z,3.90
2022-08-09T18:11:02.250Z,3.75
2022-08-09T18:13:39.686Z,3.97
2022-08-09T18:16:28.962Z,7.03
2022-08-09T18:18:57.036Z,4.13
2022-08-09T18:21:24.503Z,8.13
2022-08-09T18:24:09.514Z,4.28
2022-08-09T18:26:45.824Z,4.88
2022-08-09T18:30:37.956Z,3.90
2022-08-09T18:32:00.920Z,3.33
2022-08-09T18:34:31.607Z,4.22
2022-08-09T18:36:58.661Z,5.78
2022-08-09T18:39:25.722Z,4.22
2022-08-09T18:42:08.755Z,4.30
2022-08-09T18:44:35.943Z,5.00
2022-08-09T18:47:07.599Z,7.30
2022-08-09T18:49:43.527Z,4.03
2022-08-09T18:52:15.773Z,1.60
2022-08-09T18:54:52.282Z,6.43
2022-08-09T18:59:55.491Z,3.10
2022-08-09T19:02:31.830Z,3.33
2022-08-09T19:05:19.648Z,8.43
2022-08-09T19:08:04.174Z,5.85
2022-08-09T19:10:39.094Z,3.55
2022-08-09T19:13:20.490Z,5.00
2022-08-09T19:15:58.962Z,2.80
2022-08-09T19:18:35.074Z,4.22
2022-08-09T19:21:10.664Z,5.40
2022-08-09T19:24:35.828Z,4.97
2022-08-09T19:26:31.608Z,3.35
2022-08-09T19:29:15.175Z,4.80
2022-08-09T19:31:45.346Z,3.20
2022-08-09T19:34:21.436Z,3.47
2022-08-09T19:36:51.398Z,5.38
2022-08-09T19:39:20.988Z,3.60
2022-08-09T19:41:57.056Z,4.05
2022-08-09T19:44:24.115Z,3.20
2022-08-09T19:46:53.327Z,4.30
2022-08-09T19:50:10.200Z,3.47
2022-08-09T19:52:08.572Z,4.30
2022-08-09T19:54:35.639Z,4.85
2022-08-09T19:57:02.784Z,2.50
2022-08-09T19:59:57.755Z,6.53
2022-08-09T20:04:18.019Z,4.82
2022-08-09T20:05:11.557Z,4.85
2022-08-09T20:07:58.838Z,2.70
2022-08-09T20:10:34.851Z,4.90
2022-08-09T20:13:06.365Z,4.97
2022-08-09T20:16:34.844Z,7.72
2022-08-09T20:18:22.460Z,3.05
2022-08-09T20:20:51.233Z,2.67
2022-08-09T20:23:21.046Z,2.67
2022-08-09T20:25:53.596Z,3.75
2022-08-09T20:28:27.939Z,5.43
2022-08-09T20:31:04.930Z,3.78
2022-08-09T20:33:39.272Z,3.60
2022-08-09T20:36:08.818Z,4.88
2022-08-09T20:39:02.916Z,3.78
2022-08-09T20:41:35.060Z,4.07
2022-08-09T20:44:09.815Z,4.80
2022-08-09T20:46:43.063Z,2.95
2022-08-09T20:49:13.051Z,4.35
2022-08-09T20:51:41.819Z,3.53
2022-08-09T20:54:12.740Z,3.20
2022-08-09T20:56:46.687Z,2.60
2022-08-09T20:59:16.882Z,3.40
2022-08-09T21:01:51.230Z,2.60
2022-08-09T21:05:53.562Z,2.33
2022-08-09T21:07:11.450Z,3.03
2022-08-09T21:09:45.701Z,2.92
2022-08-09T21:12:23.691Z,5.25
2022-08-09T21:15:01.383Z,3.85
2022-08-09T21:18:22.454Z,3.70
2022-08-09T21:20:23.008Z,6.65
2022-08-09T21:22:54.615Z,3.28
2022-08-09T21:25:44.234Z,2.30
2022-08-09T21:28:33.740Z,7.90
2022-08-09T21:31:19.780Z,3.25
2022-08-09T21:33:52.838Z,3.30
2022-08-09T21:36:28.867Z,4.00
2022-08-09T21:38:57.943Z,2.40
2022-08-09T21:42:00.281Z,3.58
2022-08-09T21:44:15.372Z,3.00
2022-08-09T21:47:00.345Z,2.58
2022-08-09T21:49:28.565Z,3.55
2022-08-09T21:51:55.364Z,5.32
2022-08-09T21:54:24.286Z,2.25
2022-08-09T21:56:54.385Z,2.00
2022-08-09T21:59:23.333Z,3.13
2022-08-09T22:02:01.178Z,2.92
2022-08-09T22:04:55.054Z,2.28
2022-08-09T22:07:35.393Z,3.60
2022-08-09T22:10:06.146Z,3.45
2022-08-09T22:12:33.380Z,5.88
2022-08-09T22:15:01.042Z,6.30
2022-08-09T22:17:27.977Z,2.30
2022-08-09T22:20:00.700Z,2.78
2022-08-09T22:22:31.302Z,3.30
2022-08-09T22:26:07.033Z,4.88
2022-08-09T22:27:48.677Z,3.40
2022-08-09T22:30:15.725Z,3.58
2022-08-09T22:32:53.389Z,4.22
2022-08-09T22:36:01.573Z,4.40
2022-08-09T22:38:07.982Z,4.35
2022-08-09T22:40:35.728Z,3.08
2022-08-09T22:43:16.169Z,5.13
2022-08-09T22:48:18.481Z,2.95
2022-08-09T22:48:36.922Z,3.53
2022-08-09T22:51:10.674Z,3.03
2022-08-09T22:53:58.043Z,4.28
2022-08-09T22:56:31.354Z,4.65
2022-08-09T22:59:01.263Z,2.67
2022-08-09T23:01:41.423Z,5.95
2022-08-09T23:04:08.241Z,3.40
2022-08-09T23:06:54.672Z,3.80
2022-08-09T23:09:21.470Z,4.07
2022-08-09T23:11:48.297Z,3.33
2022-08-09T23:14:17.500Z,5.03
2022-08-09T23:16:44.768Z,5.60
2022-08-09T23:19:11.559Z,3.88
2022-08-09T23:21:39.440Z,2.85
2022-08-09T23:24:07.909Z,3.67
2022-08-09T23:26:36.366Z,8.20
2022-08-09T23:29:08.208Z,7.63
2022-08-09T23:31:35.110Z,4.80
2022-08-09T23:34:02.629Z,4.60
2022-08-09T23:36:31.211Z,3.58
2022-08-09T23:38:58.088Z,4.10
2022-08-09T23:41:28.968Z,4.35
2022-08-09T23:44:01.828Z,5.30
2022-08-09T23:46:30.110Z,3.75
2022-08-09T23:48:57.853Z,3.03
2022-08-09T23:51:30.892Z,4.78
2022-08-09T23:54:02.331Z,3.72
2022-08-09T23:56:53.616Z,3.55
2022-08-09T23:59:18.620Z,6.70
